createdAt,value
2019-02-14T00:03:20.996Z,17.32
2019-02-14T00:05:48.266Z,20.57
2019-02-14T00:08:15.590Z,20.92
2019-02-14T00:10:42.872Z,21.77
2019-02-14T00:13:10.256Z,21.97
2019-02-14T00:15:37.610Z,19.10
2019-02-14T00:18:04.922Z,19.48
2019-02-14T00:20:32.324Z,24.37
2019-02-14T00:22:59.703Z,28.85
2019-02-14T00:25:27.039Z,24.35
2019-02-14T00:27:54.368Z,25.95
2019-02-14T00:30:21.791Z,24.80
2019-02-14T00:32:49.173Z,27.52
2019-02-14T00:35:24.558Z,25.43
2019-02-14T00:40:27.238Z,27.42
2019-02-14T00:42:54.746Z,29.95
2019-02-14T00:45:22.115Z,23.90
2019-02-14T00:47:49.461Z,27.75
2019-02-14T00:50:19.948Z,26.93
2019-02-14T00:52:47.342Z,26.02
2019-02-14T00:55:14.715Z,31.95
2019-02-14T00:57:42.126Z,28.57
2019-02-14T01:00:10.307Z,26.65
2019-02-14T01:02:37.819Z,31.27
2019-02-14T01:27:02.600Z,28.38
2019-02-14T01:29:29.997Z,35.00
2019-02-14T01:31:57.414Z,24.25
2019-02-14T01:34:24.873Z,35.70
2019-02-14T01:36:52.264Z,32.25
2019-02-14T01:39:19.717Z,30.65
2019-02-14T01:41:47.003Z,30.75
2019-02-14T01:44:14.411Z,34.92
2019-02-14T01:46:41.715Z,28.40
2019-02-14T01:49:09.084Z,29.12
2019-02-14T01:51:36.371Z,29.92
2019-02-14T01:54:03.687Z,29.25
2019-02-14T01:56:31.165Z,29.23
2019-02-14T01:58:58.581Z,32.85
2019-02-14T02:01:26.047Z,36.58
2019-02-14T02:03:53.451Z,28.38
2019-02-14T02:06:20.763Z,32.13
2019-02-14T02:08:48.149Z,32.35
2019-02-14T02:11:15.741Z,31.68
2019-02-14T02:13:43.075Z,35.65
2019-02-14T02:16:10.475Z,32.42
2019-02-14T02:29:24.729Z,33.83
2019-02-14T02:34:48.610Z,29.40
2019-02-14T02:37:16.020Z,28.60
2019-02-14T02:39:43.348Z,34.50
2019-02-14T02:42:10.641Z,34.43
2019-02-14T02:44:37.965Z,32.80
2019-02-14T02:47:05.269Z,33.95
2019-02-14T02:49:32.585Z,31.50
2019-02-14T02:52:00.002Z,29.00
2019-02-14T02:54:27.444Z,30.48
2019-02-14T02:56:54.799Z,38.38
2019-02-14T02:59:22.259Z,31.65
2019-02-14T03:01:49.612Z,32.15
2019-02-14T03:04:16.964Z,36.65
2019-02-14T03:06:44.320Z,35.85
2019-02-14T03:09:11.715Z,31.60
2019-02-14T03:11:39.084Z,32.80
2019-02-14T03:14:06.388Z,41.58
2019-02-14T03:16:33.820Z,29.05
2019-02-14T03:19:01.201Z,38.85
2019-02-14T03:21:30.030Z,37.80
2019-02-14T03:24:00.082Z,32.60
2019-02-14T03:26:27.470Z,33.60
2019-02-14T03:28:54.773Z,33.85
2019-02-14T03:31:22.104Z,29.02
2019-02-14T03:33:49.418Z,33.53
2019-02-14T03:36:19.010Z,32.23
2019-02-14T03:41:43.402Z,35.20
2019-02-14T03:44:11.003Z,34.00
2019-02-14T03:46:38.337Z,32.35
2019-02-14T03:49:05.774Z,34.55
2019-02-14T03:51:33.116Z,39.50
2019-02-14T03:54:00.641Z,41.23
2019-02-14T03:56:28.024Z,34.88
2019-02-14T03:58:55.348Z,36.80
2019-02-14T04:01:22.648Z,37.17
2019-02-14T04:03:49.972Z,30.95
2019-02-14T04:06:17.412Z,32.93
2019-02-14T04:08:44.808Z,31.62
2019-02-14T04:11:12.113Z,36.25
2019-02-14T04:13:39.396Z,28.32
2019-02-14T04:16:06.948Z,34.45
2019-02-14T04:18:34.306Z,33.45
2019-02-14T04:21:01.696Z,32.98
2019-02-14T04:23:29.060Z,29.87
2019-02-14T04:25:56.385Z,32.48
2019-02-14T04:28:23.717Z,32.40
2019-02-14T04:30:51.146Z,34.83
2019-02-14T04:33:18.712Z,34.48
2019-02-14T04:35:46.267Z,32.65
2019-02-14T04:38:14.023Z,33.60
2019-02-14T04:40:41.462Z,33.60
2019-02-14T04:43:09.067Z,31.05
2019-02-14T04:45:36.623Z,36.95
2019-02-14T04:48:04.081Z,30.10
2019-02-14T04:50:31.537Z,33.90
2019-02-14T04:52:58.942Z,34.88
2019-02-14T04:55:26.352Z,33.63
2019-02-14T04:57:53.942Z,35.43
2019-02-14T05:00:21.413Z,34.23
2019-02-14T05:02:48.881Z,32.28
2019-02-14T05:05:16.414Z,33.28
2019-02-14T05:07:44.006Z,32.60
2019-02-14T05:10:11.992Z,30.52
2019-02-14T05:12:39.585Z,32.83
2019-02-14T05:15:10.663Z,35.68
2019-02-14T05:17:39.918Z,28.38
2019-02-14T05:25:54.705Z,32.17
2019-02-14T05:28:22.375Z,34.95
2019-02-14T05:30:49.721Z,33.00
2019-02-14T05:33:17.115Z,38.42
2019-02-14T05:35:49.840Z,34.03
2019-02-14T05:38:17.424Z,30.70
2019-02-14T05:40:44.871Z,33.73
2019-02-14T05:43:15.200Z,31.95
2019-02-14T05:45:42.633Z,31.42
2019-02-14T05:48:10.269Z,30.72
2019-02-14T05:50:38.269Z,35.85
2019-02-14T05:53:05.929Z,30.65
2019-02-14T05:55:33.533Z,32.60
2019-02-14T05:58:01.049Z,36.88
2019-02-14T06:00:28.581Z,30.77
2019-02-14T06:02:55.931Z,27.37
2019-02-14T06:05:25.015Z,31.27
2019-02-14T06:07:52.506Z,46.15
2019-02-14T06:10:19.838Z,50.12
2019-02-14T06:12:47.259Z,36.42
2019-02-14T06:15:14.809Z,35.60
2019-02-14T06:17:42.159Z,33.08
2019-02-14T06:20:30.459Z,36.03
2019-02-14T06:22:57.807Z,37.33
2019-02-14T06:25:25.173Z,32.58
2019-02-14T06:27:52.670Z,33.70
2019-02-14T06:30:20.073Z,33.42
2019-02-14T06:32:47.453Z,35.20
2019-02-14T06:35:14.746Z,30.72
2019-02-14T06:40:16.930Z,29.52
2019-02-14T06:42:44.305Z,38.63
2019-02-14T06:45:30.928Z,30.85
2019-02-14T06:47:58.234Z,31.55
2019-02-14T06:50:25.604Z,33.30
2019-02-14T06:52:52.996Z,36.23
2019-02-14T06:55:20.321Z,29.07
2019-02-14T06:57:47.661Z,30.97
2019-02-14T07:00:35.830Z,29.15
2019-02-14T07:03:03.162Z,32.63
2019-02-14T07:05:30.874Z,31.87
2019-02-14T07:07:58.220Z,33.98
2019-02-14T07:10:25.534Z,30.23
2019-02-14T07:12:52.862Z,29.95
2019-02-14T07:15:20.260Z,34.27
2019-02-14T07:17:47.640Z,34.65
2019-02-14T07:20:35.784Z,34.98
2019-02-14T07:23:03.111Z,29.72
2019-02-14T07:25:30.564Z,30.30
2019-02-14T07:27:57.931Z,36.50
2019-02-14T07:30:46.059Z,34.45
2019-02-14T07:33:13.405Z,30.70
2019-02-14T07:35:40.844Z,30.85
2019-02-14T07:38:08.170Z,29.20
2019-02-14T07:40:35.582Z,29.75
2019-02-14T07:43:02.943Z,34.90
2019-02-14T07:45:30.411Z,29.23
2019-02-14T07:47:57.954Z,28.23
2019-02-14T07:50:25.248Z,31.65
2019-02-14T07:52:52.604Z,38.60
2019-02-14T07:55:20.140Z,30.37
2019-02-14T07:57:47.506Z,28.45
2019-02-14T08:00:15.916Z,31.12
2019-02-14T08:02:43.223Z,27.27
2019-02-14T08:05:10.902Z,29.45
2019-02-14T08:07:38.242Z,29.50
2019-02-14T08:10:26.521Z,27.85
2019-02-14T08:13:13.182Z,26.90
2019-02-14T08:15:41.055Z,32.88
2019-02-14T08:18:08.350Z,27.95
2019-02-14T08:20:35.656Z,26.70
2019-02-14T08:23:02.938Z,31.77
2019-02-14T08:25:30.228Z,28.67
2019-02-14T08:27:57.532Z,27.10
2019-02-14T08:30:24.815Z,24.95
2019-02-14T08:32:52.842Z,25.55
2019-02-14T08:35:20.252Z,29.98
2019-02-14T08:37:47.581Z,24.50
2019-02-14T08:43:22.156Z,24.30
2019-02-14T08:45:49.440Z,23.05
2019-02-14T08:48:16.854Z,24.20
2019-02-14T08:50:44.148Z,23.32
2019-02-14T08:53:11.532Z,24.63
2019-02-14T08:55:38.989Z,23.23
2019-02-14T08:58:06.358Z,24.10
2019-02-14T09:00:33.664Z,23.93
2019-02-14T09:03:00.949Z,23.50
2019-02-14T09:05:28.596Z,24.60
2019-02-14T09:07:55.881Z,22.60
2019-02-14T09:10:42.471Z,24.00
2019-02-14T09:13:16.987Z,22.77
2019-02-14T09:15:38.869Z,27.10
2019-02-14T09:18:07.836Z,23.80
2019-02-14T09:20:35.264Z,22.90
2019-02-14T09:23:21.865Z,21.83
2019-02-14T09:25:49.176Z,22.70
2019-02-14T09:28:16.466Z,21.83
2019-02-14T09:30:43.840Z,22.20
2019-02-14T09:33:11.190Z,21.53
2019-02-14T09:35:38.572Z,24.17
2019-02-14T09:38:05.867Z,21.97
2019-02-14T09:40:33.173Z,21.60
2019-02-14T09:43:00.526Z,21.20
2019-02-14T09:45:27.831Z,20.23
2019-02-14T09:47:55.121Z,19.97
2019-02-14T09:50:22.673Z,19.23
2019-02-14T09:52:50.000Z,19.50
2019-02-14T09:55:17.316Z,21.67
2019-02-14T09:57:44.726Z,19.27
2019-02-14T10:03:06.219Z,21.50
2019-02-14T10:05:33.562Z,20.43
2019-02-14T10:08:01.112Z,20.03
2019-02-14T10:10:28.508Z,19.97
2019-02-14T10:12:55.869Z,18.33
2019-02-14T10:15:23.157Z,17.43
2019-02-14T10:20:25.017Z,17.00
2019-02-14T10:22:52.350Z,16.80
2019-02-14T10:28:06.103Z,16.47
2019-02-14T10:30:34.295Z,15.13
2019-02-14T10:33:01.709Z,17.47
2019-02-14T10:35:29.021Z,16.43
2019-02-14T10:37:56.385Z,15.37
2019-02-14T10:40:23.695Z,15.13
2019-02-14T10:42:50.977Z,15.80
2019-02-14T10:45:37.702Z,16.40
2019-02-14T10:48:05.173Z,14.43
2019-02-14T10:53:18.917Z,12.43
2019-02-14T10:55:46.243Z,14.83
2019-02-14T11:03:23.644Z,11.07
2019-02-14T11:05:50.954Z,12.67
2019-02-14T11:08:18.330Z,12.77
2019-02-14T11:10:45.618Z,12.53
2019-02-14T11:13:12.941Z,11.73
2019-02-14T11:15:40.577Z,10.90
2019-02-14T11:18:07.934Z,12.67
2019-02-14T11:20:35.231Z,11.97
2019-02-14T11:23:02.591Z,13.30
2019-02-14T11:31:15.747Z,11.00
2019-02-14T11:33:43.088Z,10.60
2019-02-14T11:36:10.469Z,11.03
2019-02-14T11:38:40.594Z,10.77
2019-02-14T15:22:01.356Z,6.80
2019-02-14T15:24:28.668Z,9.20
2019-02-14T15:26:56.020Z,7.58
2019-02-14T15:29:23.353Z,6.97
2019-02-14T15:31:50.730Z,7.55
2019-02-14T15:34:18.114Z,6.65
2019-02-14T15:36:46.891Z,9.53
2019-02-14T16:17:22.644Z,7.65
2019-02-14T16:19:50.109Z,6.70
2019-02-14T16:22:19.351Z,8.30
2019-02-14T16:24:46.826Z,6.55
2019-02-14T16:27:14.132Z,7.05
2019-02-14T16:29:41.423Z,6.58
2019-02-14T16:32:08.814Z,6.92
2019-02-14T16:34:36.199Z,9.40
2019-02-14T16:37:03.631Z,10.65
2019-02-14T16:39:31.211Z,14.93
2019-02-14T16:42:01.149Z,11.03
2019-02-14T16:44:28.452Z,8.83
2019-02-14T16:46:55.757Z,9.45
2019-02-14T16:49:23.124Z,14.60
2019-02-14T16:51:50.434Z,11.88
2019-02-14T16:54:17.759Z,15.45
2019-02-14T16:56:45.048Z,10.15
2019-02-14T16:59:12.334Z,8.78
2019-02-14T17:01:39.662Z,12.37
2019-02-14T17:04:07.028Z,12.33
2019-02-14T17:06:34.421Z,10.53
2019-02-14T17:09:09.135Z,11.12
2019-02-14T17:11:36.431Z,9.35
2019-02-14T17:14:03.855Z,8.93
2019-02-14T17:16:31.146Z,13.15
2019-02-14T17:21:52.314Z,8.95
2019-02-14T17:24:19.658Z,9.00
2019-02-14T17:26:46.939Z,10.90
2019-02-14T17:29:36.770Z,11.12
2019-02-14T17:32:04.261Z,10.53
2019-02-14T17:34:31.637Z,11.25
2019-02-14T17:36:59.834Z,13.05
2019-02-14T17:39:27.109Z,10.63
2019-02-14T17:41:54.422Z,12.33
2019-02-14T17:44:21.895Z,14.05
2019-02-14T17:46:49.227Z,15.75
2019-02-14T17:49:16.659Z,20.97
2019-02-14T17:51:44.031Z,15.58
2019-02-14T17:54:11.443Z,17.82
2019-02-14T17:56:38.802Z,19.85
2019-02-14T17:59:06.183Z,19.20
2019-02-14T18:01:33.564Z,16.02
2019-02-14T18:04:00.866Z,14.00
2019-02-14T18:06:28.169Z,14.33
2019-02-14T18:08:55.561Z,15.05
2019-02-14T18:11:22.876Z,13.98
2019-02-14T18:13:50.211Z,17.57
2019-02-14T18:16:17.494Z,13.85
2019-02-14T18:18:44.824Z,17.42
2019-02-14T18:21:12.103Z,15.53
2019-02-14T18:23:39.425Z,14.53
2019-02-14T18:26:26.158Z,14.43
2019-02-14T18:28:53.637Z,13.20
2019-02-14T18:31:21.174Z,15.40
2019-02-14T18:33:48.736Z,13.93
2019-02-14T18:36:16.436Z,13.20
2019-02-14T18:39:04.033Z,9.78
2019-02-14T18:41:31.388Z,13.62
2019-02-14T18:43:58.829Z,13.93
2019-02-14T18:47:12.491Z,14.23
2019-02-14T18:48:55.524Z,14.30
2019-02-14T18:51:22.835Z,16.00
2019-02-14T18:53:50.316Z,15.18
2019-02-14T18:56:20.327Z,15.18
2019-02-14T19:01:42.524Z,15.18
2019-02-14T19:04:09.859Z,16.17
2019-02-14T19:09:28.080Z,19.65
2019-02-14T19:11:55.418Z,17.32
2019-02-14T19:14:23.627Z,17.37
2019-02-14T19:16:51.208Z,18.62
2019-02-14T19:19:18.614Z,20.23
2019-02-14T19:21:46.006Z,19.95
2019-02-14T19:24:13.750Z,18.82
2019-02-14T19:26:41.123Z,15.85
2019-02-14T19:29:08.467Z,17.73
2019-02-14T19:31:36.857Z,17.75
2019-02-14T19:34:04.244Z,16.60
2019-02-14T19:36:31.575Z,19.77
2019-02-14T19:38:59.147Z,16.52
2019-02-14T19:41:26.532Z,17.32
2019-02-14T19:43:53.852Z,18.42
2019-02-14T19:46:21.225Z,15.45
2019-02-14T19:48:48.534Z,13.98
2019-02-14T19:51:15.928Z,17.17
2019-02-14T19:53:43.423Z,16.05
2019-02-14T19:56:11.194Z,18.52
2019-02-14T19:58:38.618Z,15.05
2019-02-14T20:01:06.019Z,19.07
2019-02-14T20:03:33.417Z,24.87
2019-02-14T20:06:00.786Z,19.07
2019-02-14T20:08:28.170Z,17.10
2019-02-14T20:10:55.492Z,15.32
2019-02-14T20:13:22.791Z,18.42
2019-02-14T20:15:50.186Z,14.40
2019-02-14T20:18:17.551Z,22.05
2019-02-14T20:21:04.325Z,23.18
2019-02-14T20:26:35.801Z,15.00
2019-02-14T20:40:56.348Z,23.02
2019-02-14T20:44:20.235Z,17.05
2019-02-14T21:06:36.734Z,21.70
2019-02-14T21:09:25.473Z,18.23
2019-02-14T21:11:54.973Z,16.12
2019-02-14T21:14:22.173Z,17.00
2019-02-14T21:16:49.557Z,16.85
2019-02-14T21:19:16.866Z,16.62
2019-02-14T21:21:44.263Z,17.35
2019-02-14T21:24:11.622Z,13.95
2019-02-14T21:26:39.176Z,15.93
2019-02-14T21:29:06.499Z,16.82
2019-02-14T21:31:33.923Z,15.15
2019-02-14T21:34:01.358Z,16.87
2019-02-14T21:36:28.746Z,14.60
2019-02-14T21:38:56.126Z,17.57
2019-02-14T21:41:23.525Z,17.10
2019-02-14T21:43:50.903Z,19.70
2019-02-14T21:46:18.214Z,16.97
2019-02-14T21:48:45.680Z,19.27
2019-02-14T21:51:13.042Z,18.67
2019-02-14T21:53:40.428Z,17.82
2019-02-14T21:56:07.813Z,16.70
2019-02-14T21:58:35.189Z,18.30
2019-02-14T22:01:02.576Z,19.07
2019-02-14T22:03:29.934Z,17.73
2019-02-14T22:05:57.353Z,16.65
2019-02-14T22:11:13.858Z,18.15
2019-02-14T22:13:41.206Z,20.48
2019-02-14T22:16:08.581Z,20.97
2019-02-14T22:18:35.979Z,17.82
2019-02-14T22:21:03.325Z,18.90
2019-02-14T22:23:30.612Z,18.87
2019-02-14T22:25:57.917Z,19.77
2019-02-14T22:28:25.220Z,18.10
2019-02-14T22:30:52.520Z,15.95
2019-02-14T22:33:19.816Z,22.10
2019-02-14T22:35:47.133Z,27.75
2019-02-14T22:38:14.485Z,26.17
2019-02-14T22:40:41.799Z,20.97
2019-02-14T22:43:09.092Z,23.73
2019-02-14T22:45:36.411Z,23.35
2019-02-14T22:48:03.742Z,23.90
2019-02-14T22:50:31.115Z,20.32
2019-02-14T22:55:33.212Z,23.40
2019-02-14T22:58:00.544Z,21.62
